createdAt,value
2018-11-29T00:00:21.911Z,20.87
2018-11-29T00:02:50.837Z,21.70
2018-11-29T00:05:19.081Z,21.37
2018-11-29T00:07:47.461Z,21.17
2018-11-29T00:10:15.748Z,21.48
2018-11-29T00:12:43.930Z,20.93
2018-11-29T00:15:12.878Z,20.77
2018-11-29T00:17:41.070Z,21.73
2018-11-29T00:20:12.231Z,19.73
2018-11-29T00:22:40.592Z,21.83
2018-11-29T00:25:09.902Z,20.05
2018-11-29T00:27:38.118Z,19.30
2018-11-29T00:30:25.576Z,21.33
2018-11-29T00:32:54.595Z,19.20
2018-11-29T00:35:22.775Z,19.77
2018-11-29T00:37:50.994Z,18.87
2018-11-29T00:40:20.897Z,20.88
2018-11-29T00:42:49.045Z,19.67
2018-11-29T00:45:21.404Z,20.63
2018-11-29T00:47:49.719Z,19.23
2018-11-29T00:50:18.566Z,20.37
2018-11-29T00:52:47.576Z,19.83
2018-11-29T00:55:17.005Z,21.17
2018-11-29T00:57:45.208Z,20.07
2018-11-29T01:00:17.418Z,21.77
2018-11-29T01:02:45.629Z,21.70
2018-11-29T01:05:13.918Z,22.77
2018-11-29T01:07:42.183Z,20.95
2018-11-29T01:10:13.249Z,21.27
2018-11-29T01:12:41.681Z,21.13
2018-11-29T01:15:12.036Z,21.17
2018-11-29T01:17:40.308Z,20.10
2018-11-29T01:20:10.567Z,19.87
2018-11-29T01:22:38.804Z,18.70
2018-11-29T01:25:08.669Z,19.53
2018-11-29T01:27:36.926Z,18.80
2018-11-29T01:30:09.176Z,19.00
2018-11-29T01:32:37.547Z,19.03
2018-11-29T01:35:06.582Z,19.30
2018-11-29T01:37:34.831Z,19.20
2018-11-29T01:40:03.081Z,19.80
2018-11-29T01:42:31.318Z,19.57
2018-11-29T01:44:59.590Z,20.40
2018-11-29T01:47:27.842Z,19.17
2018-11-29T01:49:56.030Z,19.47
2018-11-29T01:52:24.290Z,19.83
2018-11-29T01:54:52.538Z,19.55
2018-11-29T01:57:20.781Z,19.97
2018-11-29T01:59:49.014Z,19.37
2018-11-29T02:02:17.489Z,21.55
2018-11-29T02:04:45.702Z,19.03
2018-11-29T02:07:13.987Z,21.07
2018-11-29T02:09:42.460Z,19.35
2018-11-29T02:12:10.705Z,19.77
2018-11-29T02:14:38.955Z,21.33
2018-11-29T02:17:07.220Z,21.45
2018-11-29T02:19:35.558Z,21.50
2018-11-29T02:22:03.827Z,20.87
2018-11-29T02:24:32.073Z,23.67
2018-11-29T02:27:00.398Z,23.53
2018-11-29T02:29:28.668Z,21.27
2018-11-29T02:31:57.220Z,23.55
2018-11-29T02:34:25.668Z,21.53
2018-11-29T02:36:54.176Z,22.00
2018-11-29T02:39:22.609Z,21.93
2018-11-29T02:41:51.009Z,18.55
2018-11-29T02:44:19.416Z,16.63
2018-11-29T02:46:47.843Z,15.32
2018-11-29T02:49:16.284Z,12.23
2018-11-29T02:51:44.648Z,14.03
2018-11-29T02:54:13.055Z,15.30
2018-11-29T02:56:41.477Z,14.43
2018-11-29T02:59:09.883Z,15.73
2018-11-29T03:01:38.276Z,15.50
2018-11-29T03:04:06.651Z,16.03
2018-11-29T03:06:35.069Z,15.95
2018-11-29T03:09:03.925Z,16.10
2018-11-29T03:11:32.417Z,16.33
2018-11-29T03:14:00.791Z,17.40
2018-11-29T03:16:29.376Z,15.83
2018-11-29T03:18:57.789Z,16.15
2018-11-29T03:21:26.318Z,16.70
2018-11-29T03:23:54.740Z,16.65
2018-11-29T03:26:23.269Z,16.07
2018-11-29T03:28:51.704Z,17.98
2018-11-29T03:31:20.119Z,18.23
2018-11-29T03:33:48.495Z,18.05
2018-11-29T03:36:16.985Z,18.57
2018-11-29T03:38:45.485Z,18.45
2018-11-29T03:41:13.956Z,18.47
2018-11-29T03:43:42.275Z,18.55
2018-11-29T03:46:10.633Z,18.13
2018-11-29T03:48:39.090Z,18.85
2018-11-29T03:51:07.557Z,18.60
2018-11-29T03:53:35.918Z,18.75
2018-11-29T03:56:04.389Z,19.30
2018-11-29T03:58:32.890Z,18.57
2018-11-29T04:01:01.380Z,20.20
2018-11-29T04:03:29.808Z,18.75
2018-11-29T04:05:58.225Z,19.93
2018-11-29T04:08:26.595Z,19.65
2018-11-29T04:10:55.039Z,19.03
2018-11-29T04:13:23.423Z,20.97
2018-11-29T04:15:51.795Z,20.67
2018-11-29T04:18:20.180Z,19.85
2018-11-29T04:20:48.743Z,20.27
2018-11-29T04:23:17.117Z,20.77
2018-11-29T04:25:45.472Z,18.23
2018-11-29T04:28:13.870Z,20.25
2018-11-29T04:30:42.493Z,20.57
2018-11-29T04:33:10.894Z,19.73
2018-11-29T04:35:42.859Z,19.67
2018-11-29T04:38:11.287Z,19.73
2018-11-29T04:40:39.795Z,20.32
2018-11-29T04:43:08.277Z,20.27
2018-11-29T04:46:45.197Z,18.90
2018-11-29T04:49:13.602Z,21.93
2018-11-29T04:51:42.116Z,45.70
2018-11-29T04:54:10.751Z,22.50
2018-11-29T04:56:39.351Z,20.48
2018-11-29T04:59:07.934Z,21.37
2018-11-29T05:01:36.593Z,20.70
2018-11-29T05:04:05.091Z,21.10
2018-11-29T05:06:33.563Z,21.30
2018-11-29T05:09:02.043Z,21.12
2018-11-29T05:11:30.516Z,19.30
2018-11-29T05:13:58.899Z,18.87
2018-11-29T05:16:27.198Z,19.63
2018-11-29T05:18:55.602Z,22.63
2018-11-29T05:21:24.048Z,18.00
2018-11-29T05:23:52.537Z,17.87
2018-11-29T05:26:20.955Z,18.03
2018-11-29T05:28:49.379Z,16.40
2018-11-29T05:31:17.948Z,18.77
2018-11-29T05:33:46.430Z,17.73
2018-11-29T05:36:14.997Z,17.87
2018-11-29T05:38:43.375Z,17.65
2018-11-29T05:41:11.843Z,18.03
2018-11-29T05:43:40.181Z,17.40
2018-11-29T05:46:08.548Z,17.27
2018-11-29T05:48:36.963Z,16.63
2018-11-29T05:51:05.434Z,16.77
2018-11-29T05:53:33.879Z,16.85
2018-11-29T05:56:02.287Z,17.90
2018-11-29T05:58:30.701Z,15.98
2018-11-29T06:01:01.898Z,15.87
2018-11-29T06:03:30.555Z,17.50
2018-11-29T06:05:58.982Z,17.45
2018-11-29T06:08:30.870Z,17.27
2018-11-29T06:10:59.316Z,18.43
2018-11-29T06:13:27.862Z,15.80
2018-11-29T06:15:56.466Z,15.33
2018-11-29T06:18:24.862Z,17.00
2018-11-29T06:20:53.364Z,17.83
2018-11-29T06:23:21.842Z,16.65
2018-11-29T06:25:50.322Z,17.40
2018-11-29T06:28:18.834Z,16.57
2018-11-29T06:30:47.347Z,16.10
2018-11-29T06:33:15.923Z,17.27
2018-11-29T06:35:44.616Z,17.07
2018-11-29T06:38:13.196Z,16.73
2018-11-29T06:40:41.702Z,18.07
2018-11-29T06:43:10.168Z,19.50
2018-11-29T06:45:38.590Z,18.10
2018-11-29T06:48:07.126Z,17.87
2018-11-29T06:50:35.554Z,18.73
2018-11-29T06:53:04.388Z,18.60
2018-11-29T06:55:32.843Z,18.30
2018-11-29T06:58:01.232Z,17.75
2018-11-29T07:00:32.676Z,17.50
2018-11-29T07:03:01.049Z,19.10
2018-11-29T07:05:29.507Z,17.07
2018-11-29T07:07:58.161Z,19.23
2018-11-29T07:10:31.859Z,17.45
2018-11-29T07:13:00.453Z,18.30
2018-11-29T07:15:28.968Z,18.95
2018-11-29T07:17:57.406Z,18.40
2018-11-29T07:20:25.810Z,18.85
2018-11-29T07:22:54.276Z,18.43
2018-11-29T07:25:22.709Z,19.73
2018-11-29T07:27:51.131Z,18.23
2018-11-29T07:30:19.603Z,17.32
2018-11-29T07:32:48.004Z,18.67
2018-11-29T07:35:16.906Z,18.07
2018-11-29T07:37:45.283Z,17.65
2018-11-29T07:40:16.194Z,18.57
2018-11-29T07:42:45.570Z,20.03
2018-11-29T07:45:15.724Z,21.30
2018-11-29T07:47:44.414Z,20.53
2018-11-29T07:50:20.958Z,20.20
2018-11-29T07:52:49.449Z,21.13
2018-11-29T07:55:19.987Z,20.23
2018-11-29T07:57:49.860Z,21.20
2018-11-29T08:00:18.389Z,21.13
2018-11-29T08:02:47.134Z,21.48
2018-11-29T08:05:15.956Z,21.02
2018-11-29T08:07:47.690Z,22.73
2018-11-29T08:10:31.139Z,23.13
2018-11-29T08:13:03.859Z,24.47
2018-11-29T08:15:32.596Z,27.57
2018-11-29T08:18:01.108Z,27.95
2018-11-29T08:20:29.601Z,27.23
2018-11-29T08:22:58.114Z,26.85
2018-11-29T08:25:26.631Z,25.33
2018-11-29T08:27:55.111Z,25.40
2018-11-29T08:30:23.652Z,20.83
2018-11-29T08:32:55.659Z,22.75
2018-11-29T08:35:24.017Z,22.83
2018-11-29T08:37:52.364Z,21.75
2018-11-29T08:40:21.253Z,21.95
2018-11-29T08:42:49.617Z,22.83
2018-11-29T08:45:18.050Z,19.27
2018-11-29T08:47:46.598Z,20.13
2018-11-29T08:50:15.384Z,20.00
2018-11-29T08:52:44.586Z,19.37
2018-11-29T08:55:14.822Z,20.07
2018-11-29T08:57:43.149Z,18.73
2018-11-29T09:00:13.525Z,18.67
2018-11-29T09:02:41.880Z,16.00
2018-11-29T09:05:11.018Z,14.70
2018-11-29T09:07:39.403Z,13.78
2018-11-29T09:10:16.967Z,13.83
2018-11-29T09:12:45.255Z,14.57
2018-11-29T09:15:14.493Z,14.00
2018-11-29T09:17:42.904Z,12.73
2018-11-29T09:20:14.058Z,12.57
2018-11-29T09:22:42.612Z,13.67
2018-11-29T09:25:13.333Z,14.65
2018-11-29T09:27:41.812Z,14.23
2018-11-29T09:30:14.252Z,17.40
2018-11-29T09:32:43.121Z,17.97
2018-11-29T09:35:11.566Z,19.10
2018-11-29T09:37:40.055Z,17.95
2018-11-29T09:40:15.281Z,16.53
2018-11-29T09:42:43.800Z,18.50
2018-11-29T09:45:16.288Z,18.87
2018-11-29T09:47:45.705Z,17.53
2018-11-29T09:50:15.130Z,17.20
2018-11-29T09:52:43.571Z,18.43
2018-11-29T09:55:13.053Z,16.00
2018-11-29T09:57:41.893Z,17.60
2018-11-29T10:00:27.079Z,16.87
2018-11-29T10:02:59.479Z,15.97
2018-11-29T10:05:27.966Z,16.50
2018-11-29T10:07:56.401Z,16.87
2018-11-29T10:10:24.959Z,16.87
2018-11-29T10:12:53.524Z,17.48
2018-11-29T10:15:22.071Z,16.70
2018-11-29T10:17:50.689Z,18.50
2018-11-29T10:20:19.190Z,16.37
2018-11-29T10:22:47.964Z,16.73
2018-11-29T10:25:16.413Z,15.38
2018-11-29T10:27:47.622Z,16.33
2018-11-29T10:30:18.752Z,16.90
2018-11-29T10:32:47.179Z,16.20
2018-11-29T10:35:15.620Z,16.15
2018-11-29T10:37:44.145Z,16.60
2018-11-29T10:40:12.719Z,16.25
2018-11-29T10:42:41.256Z,15.90
2018-11-29T10:45:12.096Z,16.12
2018-11-29T10:47:41.194Z,17.13
2018-11-29T10:50:12.067Z,17.27
2018-11-29T10:52:40.572Z,17.13
2018-11-29T10:55:11.859Z,17.92
2018-11-29T10:57:40.725Z,20.50
2018-11-29T11:00:29.024Z,21.53
2018-11-29T11:03:33.208Z,20.27
2018-11-29T11:06:01.812Z,18.30
2018-11-29T11:08:30.364Z,18.70
2018-11-29T11:10:59.192Z,16.90
2018-11-29T11:13:27.599Z,16.20
2018-11-29T11:15:56.020Z,17.30
2018-11-29T11:18:24.416Z,16.63
2018-11-29T11:20:52.979Z,16.57
2018-11-29T11:23:21.530Z,16.33
2018-11-29T11:25:50.092Z,16.40
2018-11-29T11:28:18.562Z,14.07
2018-11-29T11:30:47.103Z,13.18
2018-11-29T11:33:15.811Z,10.70
2018-11-29T11:35:44.370Z,11.47
2018-11-29T11:38:12.950Z,11.43
2018-11-29T11:40:41.495Z,11.00
2018-11-29T11:43:10.197Z,11.63
2018-11-29T11:45:38.684Z,11.03
2018-11-29T11:48:07.514Z,11.53
2018-11-29T11:50:36.587Z,10.18
2018-11-29T11:53:05.794Z,11.53
2018-11-29T11:55:34.328Z,10.03
2018-11-29T11:58:02.944Z,10.80
2018-11-29T12:00:31.885Z,10.70
2018-11-29T12:03:03.812Z,10.37
2018-11-29T12:05:32.349Z,10.53
2018-11-29T12:08:00.912Z,10.80
2018-11-29T12:10:29.605Z,10.90
2018-11-29T12:12:58.259Z,9.17
2018-11-29T12:15:26.846Z,9.88
2018-11-29T12:17:55.480Z,9.90
2018-11-29T12:20:25.061Z,10.00
2018-11-29T12:22:54.703Z,9.77
2018-11-29T12:25:23.383Z,9.43
2018-11-29T12:27:52.439Z,10.38
2018-11-29T12:30:24.115Z,9.50
2018-11-29T12:32:58.974Z,9.10
2018-11-29T12:35:27.467Z,9.87
2018-11-29T12:37:55.913Z,8.73
2018-11-29T12:40:24.368Z,8.77
2018-11-29T12:42:52.815Z,12.10
2018-11-29T12:45:21.273Z,13.40
2018-11-29T12:47:49.728Z,17.23
2018-11-29T12:50:20.141Z,19.50
2018-11-29T12:52:48.602Z,18.53
2018-11-29T12:55:18.016Z,17.80
2018-11-29T12:57:46.459Z,18.63
2018-11-29T13:00:16.826Z,20.30
2018-11-29T13:02:52.311Z,21.40
2018-11-29T13:05:20.851Z,22.07
2018-11-29T13:07:49.333Z,18.92
2018-11-29T13:10:19.984Z,22.40
2018-11-29T13:12:48.644Z,18.90
2018-11-29T13:15:18.379Z,18.48
2018-11-29T13:17:46.891Z,17.47
2018-11-29T13:20:17.183Z,19.55
2018-11-29T13:22:45.718Z,19.27
2018-11-29T13:25:19.181Z,20.00
2018-11-29T13:27:47.926Z,20.23
2018-11-29T13:30:19.211Z,19.85
2018-11-29T13:32:48.351Z,17.67
2018-11-29T13:35:21.310Z,15.63
2018-11-29T13:37:54.144Z,18.90
2018-11-29T13:40:22.793Z,15.63
2018-11-29T13:42:51.362Z,18.12
2018-11-29T13:45:20.047Z,20.95
2018-11-29T13:47:48.728Z,19.33
2018-11-29T13:50:17.897Z,20.50
2018-11-29T13:52:46.758Z,18.27
2018-11-29T13:55:16.234Z,19.67
2018-11-29T13:57:47.680Z,18.67
2018-11-29T14:00:18.351Z,15.70
2018-11-29T14:02:49.087Z,18.47
2018-11-29T14:05:17.646Z,18.67
2018-11-29T14:07:46.187Z,17.00
2018-11-29T14:10:15.780Z,15.50
2018-11-29T14:12:44.942Z,12.60
2018-11-29T14:15:20.134Z,10.40
2018-11-29T14:17:48.661Z,10.40
2018-11-29T14:20:17.196Z,9.45
2018-11-29T14:22:45.792Z,16.50
2018-11-29T14:25:15.290Z,11.63
2018-11-29T14:27:45.105Z,10.35
2018-11-29T14:30:29.107Z,9.33
2018-11-29T14:32:58.743Z,8.97
2018-11-29T14:35:27.237Z,8.87
2018-11-29T14:37:56.067Z,8.43
2018-11-29T14:40:25.532Z,8.30
2018-11-29T14:42:54.254Z,8.63
2018-11-29T14:45:23.804Z,8.18
2018-11-29T14:47:52.269Z,7.80
2018-11-29T14:50:25.076Z,8.98
2018-11-29T14:52:53.590Z,7.77
2018-11-29T14:55:22.237Z,7.20
2018-11-29T14:57:50.979Z,8.40
2018-11-29T15:00:19.510Z,8.13
2018-11-29T15:02:49.016Z,8.45
2018-11-29T15:05:18.586Z,9.23
2018-11-29T15:07:47.299Z,8.90
2018-11-29T15:10:15.918Z,8.40
2018-11-29T15:12:44.560Z,8.00
2018-11-29T15:15:13.686Z,8.03
2018-11-29T15:17:42.986Z,7.40
2018-11-29T15:20:13.034Z,7.15
2018-11-29T15:22:41.683Z,8.17
2018-11-29T15:25:10.246Z,7.72
2018-11-29T15:27:38.936Z,8.33
2018-11-29T15:30:12.321Z,8.37
2018-11-29T15:32:40.922Z,8.30
2018-11-29T15:35:09.547Z,7.62
2018-11-29T15:37:37.966Z,7.77
2018-11-29T15:40:12.756Z,8.23
2018-11-29T15:42:41.243Z,8.47
2018-11-29T15:45:17.122Z,8.95
2018-11-29T15:47:45.859Z,8.23
2018-11-29T15:50:15.549Z,8.00
2018-11-29T15:52:44.219Z,8.13
2018-11-29T15:55:16.528Z,8.80
2018-11-29T15:57:46.113Z,8.10
2018-11-29T16:00:17.721Z,8.60
2018-11-29T16:02:47.169Z,8.10
2018-11-29T16:05:15.545Z,7.87
2018-11-29T16:07:44.050Z,8.65
2018-11-29T16:10:14.435Z,8.87
2018-11-29T16:12:42.941Z,8.50
2018-11-29T16:15:13.703Z,8.23
2018-11-29T16:17:42.312Z,8.53
2018-11-29T16:20:18.907Z,9.00
2018-11-29T16:22:47.418Z,9.33
2018-11-29T16:25:15.956Z,9.33
2018-11-29T16:27:44.555Z,8.10
2018-11-29T16:30:53.467Z,7.72
2018-11-29T16:33:31.392Z,8.03
2018-11-29T16:35:59.938Z,8.00
2018-11-29T16:38:28.551Z,7.62
2018-11-29T16:40:57.074Z,7.50
2018-11-29T16:43:25.807Z,7.60
2018-11-29T16:45:54.285Z,8.00
2018-11-29T16:48:22.826Z,7.80
2018-11-29T16:50:51.411Z,8.10
2018-11-29T16:53:20.135Z,6.77
2018-11-29T16:55:48.676Z,8.10
2018-11-29T16:58:19.117Z,7.78
2018-11-29T17:00:47.588Z,7.90
2018-11-29T17:03:16.170Z,8.08
2018-11-29T17:05:44.658Z,7.60
2018-11-29T17:08:13.117Z,7.80
2018-11-29T17:10:41.586Z,8.47
2018-11-29T17:13:18.793Z,7.53
2018-11-29T17:15:47.331Z,8.00
2018-11-29T17:18:15.977Z,8.35
2018-11-29T17:20:44.459Z,8.90
2018-11-29T17:23:13.179Z,6.87
2018-11-29T17:25:41.603Z,8.63
2018-11-29T17:28:10.121Z,8.70
2018-11-29T17:30:38.648Z,7.95
2018-11-29T17:33:08.376Z,8.10
2018-11-29T17:35:37.031Z,8.97
2018-11-29T17:38:05.959Z,9.18
2018-11-29T17:40:34.752Z,8.95
2018-11-29T17:43:03.214Z,9.88
2018-11-29T17:45:31.795Z,9.67
2018-11-29T17:48:05.300Z,8.50
2018-11-29T17:50:36.979Z,9.27
2018-11-29T17:53:06.177Z,9.20
2018-11-29T17:55:34.857Z,9.00
2018-11-29T17:58:05.563Z,9.85
2018-11-29T18:00:34.354Z,9.73
2018-11-29T18:03:02.922Z,8.87
2018-11-29T18:05:31.349Z,9.18
2018-11-29T18:07:59.847Z,10.00
2018-11-29T18:10:30.274Z,9.40
2018-11-29T18:13:00.671Z,11.33
2018-11-29T18:15:30.720Z,9.50
2018-11-29T18:17:59.208Z,9.73
2018-11-29T18:20:28.258Z,9.90
2018-11-29T18:22:56.973Z,9.30
2018-11-29T18:25:25.631Z,10.05
2018-11-29T18:27:54.338Z,12.03
2018-11-29T18:30:23.494Z,11.53
2018-11-29T18:32:52.092Z,10.47
2018-11-29T18:35:21.001Z,10.98
2018-11-29T18:37:50.170Z,10.60
2018-11-29T18:40:19.396Z,10.13
2018-11-29T18:42:57.241Z,10.90
2018-11-29T18:45:25.815Z,11.40
2018-11-29T18:47:54.739Z,9.90
2018-11-29T18:50:24.000Z,11.18
2018-11-29T18:52:53.280Z,11.43
2018-11-29T18:55:23.257Z,12.47
2018-11-29T18:57:52.069Z,11.60
2018-11-29T19:00:22.948Z,11.10
2018-11-29T19:02:56.733Z,13.30
2018-11-29T19:05:20.341Z,10.95
2018-11-29T19:07:49.092Z,15.70
2018-11-29T19:10:18.185Z,14.13
2018-11-29T19:12:49.314Z,15.00
2018-11-29T19:15:18.108Z,11.37
2018-11-29T19:17:51.168Z,12.70
2018-11-29T19:20:19.894Z,12.20
2018-11-29T19:22:48.457Z,14.37
2018-11-29T19:25:18.877Z,13.85
2018-11-29T19:27:47.497Z,12.87
2018-11-29T19:30:17.627Z,13.53
2018-11-29T19:32:47.943Z,13.87
2018-11-29T19:35:16.668Z,12.40
2018-11-29T19:37:45.256Z,14.07
2018-11-29T19:40:14.797Z,13.60
2018-11-29T19:42:43.140Z,12.93
2018-11-29T19:45:12.856Z,13.43
2018-11-29T19:47:41.233Z,12.77
2018-11-29T19:50:16.730Z,13.70
2018-11-29T19:52:46.351Z,14.43
2018-11-29T19:55:17.144Z,13.90
2018-11-29T19:57:45.537Z,14.37
2018-11-29T20:00:14.144Z,15.20
2018-11-29T20:02:43.492Z,14.43
2018-11-29T20:05:12.412Z,15.05
2018-11-29T20:07:40.774Z,16.27
2018-11-29T20:10:12.463Z,18.50
2018-11-29T20:12:40.932Z,15.47
2018-11-29T20:15:12.314Z,15.28
2018-11-29T20:17:40.789Z,14.63
2018-11-29T20:20:10.490Z,17.35
2018-11-29T20:22:38.948Z,16.83
2018-11-29T20:25:12.660Z,19.77
2018-11-29T20:27:40.994Z,16.33
2018-11-29T20:30:14.508Z,18.62
2018-11-29T20:32:43.012Z,19.87
2018-11-29T20:35:11.992Z,21.40
2018-11-29T20:37:40.468Z,17.67
2018-11-29T20:40:16.673Z,19.13
2018-11-29T20:42:45.754Z,18.77
2018-11-29T20:45:24.368Z,21.30
2018-11-29T20:47:52.942Z,20.97
2018-11-29T20:50:22.952Z,27.52
2018-11-29T20:52:52.369Z,21.43
2018-11-29T20:55:24.491Z,18.90
2018-11-29T20:57:52.808Z,22.43
2018-11-29T21:00:21.290Z,21.03
2018-11-29T21:02:49.706Z,19.63
2018-11-29T21:05:19.161Z,18.37
2018-11-29T21:07:49.333Z,18.80
2018-11-29T21:10:20.915Z,19.47
2018-11-29T21:12:49.430Z,19.77
2018-11-29T21:15:17.716Z,21.37
2018-11-29T21:17:46.134Z,20.27
2018-11-29T21:20:15.795Z,20.70
2018-11-29T21:22:45.547Z,20.67
2018-11-29T21:25:17.962Z,19.73
2018-11-29T21:27:46.425Z,20.23
2018-11-29T21:30:15.523Z,22.10
2018-11-29T21:32:44.137Z,22.45
2018-11-29T21:35:13.866Z,21.90
2018-11-29T21:37:42.480Z,21.60
2018-11-29T21:40:21.936Z,21.62
2018-11-29T21:42:50.463Z,20.60
2018-11-29T21:45:18.860Z,20.88
2018-11-29T21:47:49.411Z,21.37
2018-11-29T21:50:17.833Z,21.47
2018-11-29T21:52:46.227Z,20.02
2018-11-29T21:55:14.703Z,19.83
2018-11-29T21:57:43.076Z,20.52
2018-11-29T22:00:19.205Z,21.23
2018-11-29T22:02:49.090Z,21.60
2018-11-29T22:05:25.294Z,20.07
2018-11-29T22:07:53.593Z,21.07
2018-11-29T22:10:21.955Z,23.00
2018-11-29T22:12:50.308Z,21.17
2018-11-29T22:15:18.589Z,24.90
2018-11-29T22:18:29.576Z,22.23
2018-11-29T22:21:01.186Z,23.80
2018-11-29T22:23:29.832Z,22.73
2018-11-29T22:26:00.091Z,25.77
2018-11-29T22:28:28.799Z,25.37
2018-11-29T22:30:57.141Z,24.77
2018-11-29T22:33:25.531Z,25.17
2018-11-29T22:35:53.807Z,25.93
2018-11-29T22:38:22.169Z,25.43
2018-11-29T22:40:50.473Z,28.77
2018-11-29T22:43:18.840Z,28.83
2018-11-29T22:45:47.176Z,25.77
2018-11-29T22:48:15.594Z,25.75
2018-11-29T22:50:43.947Z,26.90
2018-11-29T22:53:12.360Z,25.27
2018-11-29T22:55:41.021Z,24.73
2018-11-29T22:58:09.196Z,24.15
2018-11-29T23:00:43.651Z,22.47
2018-11-29T23:03:12.617Z,22.20
2018-11-29T23:05:40.945Z,21.37
2018-11-29T23:08:09.245Z,17.92
2018-11-29T23:10:37.511Z,18.70
2018-11-29T23:13:06.608Z,14.80
2018-11-29T23:15:34.993Z,17.10
2018-11-29T23:18:03.264Z,14.95
2018-11-29T23:20:31.540Z,12.58
2018-11-29T23:23:00.205Z,14.93
2018-11-29T23:25:28.751Z,15.50
2018-11-29T23:28:02.822Z,13.87
2018-11-29T23:30:36.582Z,11.73
2018-11-29T23:33:05.975Z,10.83
2018-11-29T23:35:34.311Z,11.10
2018-11-29T23:38:09.072Z,9.20
2018-11-29T23:40:40.969Z,8.00
2018-11-29T23:43:09.358Z,7.70
2018-11-29T23:45:37.772Z,7.40
2018-11-29T23:48:06.117Z,7.17
2018-11-29T23:50:34.610Z,8.23
2018-11-29T23:53:02.892Z,8.10
2018-11-29T23:55:33.218Z,7.57
2018-11-29T23:58:12.323Z,7.50
